sensor_id;sensor_type;location;lat;lon;timestamp;P1;durP1;ratioP1;P2;durP2;ratioP2
70707;SDS011;58277;47.316;18.908;2023-09-30T00:00:22;24.50;;;12.20;;
70707;SDS011;58277;47.316;18.908;2023-09-30T00:02:45;26.77;;;13.05;;
70707;SDS011;58277;47.316;18.908;2023-09-30T00:05:08;23.23;;;12.10;;
70707;SDS011;58277;47.316;18.908;2023-09-30T00:07:31;23.63;;;11.77;;
70707;SDS011;58277;47.316;18.908;2023-09-30T00:09:54;22.33;;;12.13;;
70707;SDS011;58277;47.316;18.908;2023-09-30T00:12:16;23.30;;;11.63;;
70707;SDS011;58277;47.316;18.908;2023-09-30T00:14:40;25.35;;;11.68;;
70707;SDS011;58277;47.316;18.908;2023-09-30T00:17:03;25.17;;;12.23;;
70707;SDS011;58277;47.316;18.908;2023-09-30T00:19:26;24.90;;;11.68;;
70707;SDS011;58277;47.316;18.908;2023-09-30T00:21:49;21.30;;;11.50;;
70707;SDS011;58277;47.316;18.908;2023-09-30T00:24:11;21.80;;;11.50;;
70707;SDS011;58277;47.316;18.908;2023-09-30T00:26:34;22.48;;;11.88;;
70707;SDS011;58277;47.316;18.908;2023-09-30T00:28:57;21.80;;;11.55;;
70707;SDS011;58277;47.316;18.908;2023-09-30T00:31:20;21.90;;;11.63;;
70707;SDS011;58277;47.316;18.908;2023-09-30T00:33:43;24.55;;;12.10;;
70707;SDS011;58277;47.316;18.908;2023-09-30T00:36:09;23.13;;;11.50;;
70707;SDS011;58277;47.316;18.908;2023-09-30T00:38:33;21.77;;;11.88;;
70707;SDS011;58277;47.316;18.908;2023-09-30T00:40:56;21.63;;;12.77;;
70707;SDS011;58277;47.316;18.908;2023-09-30T00:43:20;22.50;;;11.85;;
70707;SDS011;58277;47.316;18.908;2023-09-30T00:45:42;23.33;;;12.48;;
70707;SDS011;58277;47.316;18.908;2023-09-30T00:48:06;23.30;;;12.27;;
70707;SDS011;58277;47.316;18.908;2023-09-30T00:50:29;23.60;;;12.82;;
70707;SDS011;58277;47.316;18.908;2023-09-30T00:52:53;24.45;;;12.65;;
70707;SDS011;58277;47.316;18.908;2023-09-30T00:55:16;28.63;;;13.00;;
70707;SDS011;58277;47.316;18.908;2023-09-30T00:57:39;25.20;;;12.45;;
70707;SDS011;58277;47.316;18.908;2023-09-30T01:00:02;26.23;;;12.47;;
70707;SDS011;58277;47.316;18.908;2023-09-30T01:02:26;23.20;;;12.80;;
70707;SDS011;58277;47.316;18.908;2023-09-30T01:04:49;25.65;;;13.50;;
70707;SDS011;58277;47.316;18.908;2023-09-30T01:07:12;23.85;;;12.70;;
70707;SDS011;58277;47.316;18.908;2023-09-30T01:09:35;25.80;;;12.60;;
70707;SDS011;58277;47.316;18.908;2023-09-30T01:11:59;27.03;;;12.37;;
70707;SDS011;58277;47.316;18.908;2023-09-30T01:14:29;24.70;;;12.55;;
70707;SDS011;58277;47.316;18.908;2023-09-30T01:16:54;22.30;;;11.98;;
70707;SDS011;58277;47.316;18.908;2023-09-30T01:19:17;25.67;;;12.30;;
70707;SDS011;58277;47.316;18.908;2023-09-30T01:21:40;23.48;;;12.32;;
70707;SDS011;58277;47.316;18.908;2023-09-30T01:24:04;26.27;;;12.40;;
70707;SDS011;58277;47.316;18.908;2023-09-30T01:26:28;22.13;;;12.55;;
70707;SDS011;58277;47.316;18.908;2023-09-30T01:28:50;22.50;;;13.10;;
70707;SDS011;58277;47.316;18.908;2023-09-30T01:31:13;26.83;;;13.02;;
70707;SDS011;58277;47.316;18.908;2023-09-30T01:33:36;24.88;;;12.85;;
70707;SDS011;58277;47.316;18.908;2023-09-30T01:35:59;23.37;;;13.10;;
70707;SDS011;58277;47.316;18.908;2023-09-30T01:38:25;30.02;;;12.93;;
70707;SDS011;58277;47.316;18.908;2023-09-30T01:41:21;26.45;;;12.80;;
70707;SDS011;58277;47.316;18.908;2023-09-30T01:43:45;22.48;;;12.20;;
70707;SDS011;58277;47.316;18.908;2023-09-30T01:46:07;25.77;;;12.43;;
70707;SDS011;58277;47.316;18.908;2023-09-30T01:48:30;25.60;;;12.55;;
70707;SDS011;58277;47.316;18.908;2023-09-30T01:50:53;26.38;;;12.30;;
70707;SDS011;58277;47.316;18.908;2023-09-30T01:53:16;25.23;;;12.80;;
70707;SDS011;58277;47.316;18.908;2023-09-30T01:55:39;21.88;;;12.45;;
70707;SDS011;58277;47.316;18.908;2023-09-30T01:58:01;24.50;;;12.98;;
70707;SDS011;58277;47.316;18.908;2023-09-30T02:00:24;25.63;;;12.43;;
70707;SDS011;58277;47.316;18.908;2023-09-30T02:02:47;24.58;;;12.52;;
70707;SDS011;58277;47.316;18.908;2023-09-30T02:05:10;25.05;;;12.35;;
70707;SDS011;58277;47.316;18.908;2023-09-30T02:07:33;25.42;;;12.73;;
70707;SDS011;58277;47.316;18.908;2023-09-30T02:09:57;23.38;;;12.57;;
70707;SDS011;58277;47.316;18.908;2023-09-30T02:12:20;27.52;;;12.55;;
70707;SDS011;58277;47.316;18.908;2023-09-30T02:14:43;23.70;;;12.32;;
70707;SDS011;58277;47.316;18.908;2023-09-30T02:17:08;24.13;;;11.68;;
70707;SDS011;58277;47.316;18.908;2023-09-30T02:19:31;22.27;;;12.07;;
70707;SDS011;58277;47.316;18.908;2023-09-30T02:21:56;24.10;;;12.93;;
70707;SDS011;58277;47.316;18.908;2023-09-30T02:27:24;23.77;;;12.85;;
70707;SDS011;58277;47.316;18.908;2023-09-30T02:29:47;24.95;;;12.93;;
70707;SDS011;58277;47.316;18.908;2023-09-30T02:32:09;25.83;;;13.35;;
70707;SDS011;58277;47.316;18.908;2023-09-30T02:34:33;26.98;;;13.40;;
70707;SDS011;58277;47.316;18.908;2023-09-30T02:36:55;28.60;;;14.30;;
70707;SDS011;58277;47.316;18.908;2023-09-30T02:39:18;25.60;;;14.50;;
70707;SDS011;58277;47.316;18.908;2023-09-30T02:41:42;25.70;;;14.50;;
70707;SDS011;58277;47.316;18.908;2023-09-30T02:44:05;24.67;;;13.40;;
70707;SDS011;58277;47.316;18.908;2023-09-30T02:46:28;27.05;;;14.18;;
70707;SDS011;58277;47.316;18.908;2023-09-30T02:48:50;30.23;;;13.90;;
70707;SDS011;58277;47.316;18.908;2023-09-30T02:51:14;24.17;;;12.48;;
70707;SDS011;58277;47.316;18.908;2023-09-30T02:53:37;26.58;;;12.70;;
70707;SDS011;58277;47.316;18.908;2023-09-30T02:56:00;24.55;;;12.95;;
70707;SDS011;58277;47.316;18.908;2023-09-30T02:58:23;24.45;;;12.88;;
70707;SDS011;58277;47.316;18.908;2023-09-30T03:00:48;24.48;;;12.15;;
70707;SDS011;58277;47.316;18.908;2023-09-30T03:03:12;24.25;;;12.75;;
70707;SDS011;58277;47.316;18.908;2023-09-30T03:05:36;25.60;;;13.13;;
70707;SDS011;58277;47.316;18.908;2023-09-30T03:07:59;22.70;;;12.82;;
70707;SDS011;58277;47.316;18.908;2023-09-30T03:10:23;23.50;;;13.18;;
70707;SDS011;58277;47.316;18.908;2023-09-30T03:12:49;28.25;;;13.05;;
70707;SDS011;58277;47.316;18.908;2023-09-30T03:15:13;24.90;;;12.65;;
70707;SDS011;58277;47.316;18.908;2023-09-30T03:17:37;25.35;;;12.63;;
70707;SDS011;58277;47.316;18.908;2023-09-30T03:20:00;24.67;;;13.00;;
70707;SDS011;58277;47.316;18.908;2023-09-30T03:22:23;25.60;;;13.40;;
70707;SDS011;58277;47.316;18.908;2023-09-30T03:24:46;22.95;;;13.52;;
70707;SDS011;58277;47.316;18.908;2023-09-30T03:27:09;22.90;;;12.90;;
70707;SDS011;58277;47.316;18.908;2023-09-30T03:29:32;27.83;;;14.13;;
70707;SDS011;58277;47.316;18.908;2023-09-30T03:31:55;25.45;;;13.70;;
70707;SDS011;58277;47.316;18.908;2023-09-30T03:34:18;25.65;;;14.05;;
70707;SDS011;58277;47.316;18.908;2023-09-30T03:36:42;25.63;;;13.57;;
70707;SDS011;58277;47.316;18.908;2023-09-30T03:39:06;27.27;;;14.50;;
70707;SDS011;58277;47.316;18.908;2023-09-30T03:41:30;27.95;;;14.82;;
70707;SDS011;58277;47.316;18.908;2023-09-30T03:43:53;28.70;;;13.70;;
70707;SDS011;58277;47.316;18.908;2023-09-30T03:46:16;24.98;;;13.55;;
70707;SDS011;58277;47.316;18.908;2023-09-30T03:48:39;24.93;;;13.97;;
70707;SDS011;58277;47.316;18.908;2023-09-30T03:51:11;25.92;;;14.05;;
70707;SDS011;58277;47.316;18.908;2023-09-30T03:53:37;26.55;;;14.35;;
70707;SDS011;58277;47.316;18.908;2023-09-30T03:56:00;28.92;;;14.43;;
70707;SDS011;58277;47.316;18.908;2023-09-30T03:58:23;27.83;;;14.00;;
70707;SDS011;58277;47.316;18.908;2023-09-30T04:00:45;24.50;;;14.30;;
70707;SDS011;58277;47.316;18.908;2023-09-30T04:03:08;26.10;;;14.80;;
70707;SDS011;58277;47.316;18.908;2023-09-30T04:05:31;30.88;;;14.43;;
70707;SDS011;58277;47.316;18.908;2023-09-30T04:07:59;27.25;;;14.65;;
70707;SDS011;58277;47.316;18.908;2023-09-30T04:10:22;28.88;;;15.00;;
70707;SDS011;58277;47.316;18.908;2023-09-30T04:12:45;28.52;;;14.27;;
70707;SDS011;58277;47.316;18.908;2023-09-30T04:15:07;27.23;;;14.57;;
70707;SDS011;58277;47.316;18.908;2023-09-30T04:17:34;25.55;;;13.93;;
70707;SDS011;58277;47.316;18.908;2023-09-30T04:19:57;27.08;;;14.50;;
70707;SDS011;58277;47.316;18.908;2023-09-30T04:22:19;25.15;;;14.68;;
70707;SDS011;58277;47.316;18.908;2023-09-30T04:24:43;25.40;;;13.77;;
70707;SDS011;58277;47.316;18.908;2023-09-30T04:27:06;27.38;;;13.70;;
70707;SDS011;58277;47.316;18.908;2023-09-30T04:29:29;25.13;;;13.95;;
70707;SDS011;58277;47.316;18.908;2023-09-30T04:31:52;29.35;;;13.80;;
70707;SDS011;58277;47.316;18.908;2023-09-30T04:34:15;26.10;;;13.90;;
70707;SDS011;58277;47.316;18.908;2023-09-30T04:36:38;24.15;;;13.75;;
70707;SDS011;58277;47.316;18.908;2023-09-30T04:39:00;25.58;;;14.25;;
70707;SDS011;58277;47.316;18.908;2023-09-30T04:41:23;27.45;;;14.23;;
70707;SDS011;58277;47.316;18.908;2023-09-30T04:43:47;24.83;;;13.32;;
70707;SDS011;58277;47.316;18.908;2023-09-30T04:46:10;23.83;;;13.43;;
70707;SDS011;58277;47.316;18.908;2023-09-30T04:48:35;27.53;;;14.43;;
70707;SDS011;58277;47.316;18.908;2023-09-30T04:50:58;26.45;;;14.38;;
70707;SDS011;58277;47.316;18.908;2023-09-30T04:53:20;30.40;;;14.68;;
70707;SDS011;58277;47.316;18.908;2023-09-30T04:55:45;27.80;;;15.00;;
70707;SDS011;58277;47.316;18.908;2023-09-30T04:58:08;29.70;;;14.57;;
70707;SDS011;58277;47.316;18.908;2023-09-30T05:00:31;25.97;;;14.10;;
70707;SDS011;58277;47.316;18.908;2023-09-30T05:02:57;27.75;;;14.98;;
70707;SDS011;58277;47.316;18.908;2023-09-30T05:05:21;28.40;;;14.95;;
70707;SDS011;58277;47.316;18.908;2023-09-30T05:07:44;38.58;;;20.40;;
70707;SDS011;58277;47.316;18.908;2023-09-30T05:10:09;55.30;;;26.70;;
70707;SDS011;58277;47.316;18.908;2023-09-30T05:12:38;31.13;;;17.17;;
70707;SDS011;58277;47.316;18.908;2023-09-30T05:15:01;27.98;;;14.27;;
70707;SDS011;58277;47.316;18.908;2023-09-30T05:17:24;27.98;;;13.90;;
70707;SDS011;58277;47.316;18.908;2023-09-30T05:19:47;24.85;;;14.18;;
70707;SDS011;58277;47.316;18.908;2023-09-30T05:22:10;27.25;;;13.82;;
70707;SDS011;58277;47.316;18.908;2023-09-30T05:24:33;25.45;;;13.60;;
70707;SDS011;58277;47.316;18.908;2023-09-30T05:26:57;23.40;;;13.13;;
70707;SDS011;58277;47.316;18.908;2023-09-30T05:29:20;24.50;;;14.00;;
70707;SDS011;58277;47.316;18.908;2023-09-30T05:31:43;23.80;;;13.50;;
70707;SDS011;58277;47.316;18.908;2023-09-30T05:34:05;23.17;;;13.48;;
70707;SDS011;58277;47.316;18.908;2023-09-30T05:36:28;25.90;;;14.40;;
70707;SDS011;58277;47.316;18.908;2023-09-30T05:38:52;26.00;;;14.20;;
70707;SDS011;58277;47.316;18.908;2023-09-30T05:41:14;27.73;;;15.13;;
70707;SDS011;58277;47.316;18.908;2023-09-30T05:43:37;22.58;;;13.35;;
70707;SDS011;58277;47.316;18.908;2023-09-30T05:46:00;24.58;;;13.98;;
70707;SDS011;58277;47.316;18.908;2023-09-30T05:48:23;27.92;;;13.77;;
70707;SDS011;58277;47.316;18.908;2023-09-30T05:50:46;20.40;;;12.63;;
70707;SDS011;58277;47.316;18.908;2023-09-30T05:53:10;23.25;;;13.80;;
70707;SDS011;58277;47.316;18.908;2023-09-30T05:55:36;24.33;;;13.13;;
70707;SDS011;58277;47.316;18.908;2023-09-30T05:57:59;22.25;;;12.55;;
70707;SDS011;58277;47.316;18.908;2023-09-30T06:00:23;20.02;;;11.52;;
70707;SDS011;58277;47.316;18.908;2023-09-30T06:02:58;20.83;;;11.75;;
70707;SDS011;58277;47.316;18.908;2023-09-30T06:05:21;22.88;;;12.15;;
70707;SDS011;58277;47.316;18.908;2023-09-30T06:07:51;18.88;;;11.88;;
70707;SDS011;58277;47.316;18.908;2023-09-30T06:10:14;23.27;;;12.73;;
70707;SDS011;58277;47.316;18.908;2023-09-30T06:12:49;21.45;;;12.00;;
70707;SDS011;58277;47.316;18.908;2023-09-30T06:15:18;24.67;;;13.02;;
70707;SDS011;58277;47.316;18.908;2023-09-30T06:17:51;22.52;;;12.95;;
70707;SDS011;58277;47.316;18.908;2023-09-30T06:20:15;21.90;;;12.82;;
70707;SDS011;58277;47.316;18.908;2023-09-30T06:22:40;24.20;;;12.45;;
70707;SDS011;58277;47.316;18.908;2023-09-30T06:25:06;21.92;;;13.32;;
70707;SDS011;58277;47.316;18.908;2023-09-30T06:27:29;24.52;;;13.35;;
70707;SDS011;58277;47.316;18.908;2023-09-30T06:29:52;23.67;;;13.15;;
70707;SDS011;58277;47.316;18.908;2023-09-30T06:32:15;20.48;;;12.55;;
70707;SDS011;58277;47.316;18.908;2023-09-30T06:34:37;23.52;;;13.80;;
70707;SDS011;58277;47.316;18.908;2023-09-30T06:37:00;27.63;;;14.60;;
70707;SDS011;58277;47.316;18.908;2023-09-30T06:39:23;22.85;;;14.38;;
70707;SDS011;58277;47.316;18.908;2023-09-30T06:41:46;23.95;;;14.48;;
70707;SDS011;58277;47.316;18.908;2023-09-30T06:44:08;24.15;;;14.93;;
70707;SDS011;58277;47.316;18.908;2023-09-30T06:46:31;24.75;;;14.82;;
70707;SDS011;58277;47.316;18.908;2023-09-30T06:48:54;28.90;;;15.25;;
70707;SDS011;58277;47.316;18.908;2023-09-30T06:51:17;30.95;;;15.50;;
70707;SDS011;58277;47.316;18.908;2023-09-30T06:53:40;29.38;;;15.80;;
70707;SDS011;58277;47.316;18.908;2023-09-30T06:56:04;24.13;;;15.90;;
70707;SDS011;58277;47.316;18.908;2023-09-30T06:58:28;27.38;;;16.20;;
70707;SDS011;58277;47.316;18.908;2023-09-30T07:00:51;25.05;;;15.02;;
70707;SDS011;58277;47.316;18.908;2023-09-30T07:03:16;27.98;;;16.10;;
70707;SDS011;58277;47.316;18.908;2023-09-30T07:05:40;32.97;;;16.13;;
70707;SDS011;58277;47.316;18.908;2023-09-30T07:08:03;25.67;;;15.68;;
70707;SDS011;58277;47.316;18.908;2023-09-30T07:10:25;29.75;;;16.05;;
70707;SDS011;58277;47.316;18.908;2023-09-30T07:12:48;35.53;;;16.35;;
70707;SDS011;58277;47.316;18.908;2023-09-30T07:15:11;28.77;;;16.33;;
70707;SDS011;58277;47.316;18.908;2023-09-30T07:17:34;26.20;;;15.55;;
70707;SDS011;58277;47.316;18.908;2023-09-30T07:19:57;27.77;;;16.30;;
70707;SDS011;58277;47.316;18.908;2023-09-30T07:22:20;26.17;;;15.77;;
70707;SDS011;58277;47.316;18.908;2023-09-30T07:25:01;24.73;;;15.85;;
70707;SDS011;58277;47.316;18.908;2023-09-30T07:27:24;23.23;;;14.73;;
70707;SDS011;58277;47.316;18.908;2023-09-30T07:29:49;23.35;;;13.73;;
70707;SDS011;58277;47.316;18.908;2023-09-30T07:32:12;21.38;;;12.85;;
70707;SDS011;58277;47.316;18.908;2023-09-30T07:34:35;19.00;;;11.98;;
70707;SDS011;58277;47.316;18.908;2023-09-30T07:36:58;19.63;;;10.35;;
70707;SDS011;58277;47.316;18.908;2023-09-30T07:39:21;16.92;;;10.10;;
70707;SDS011;58277;47.316;18.908;2023-09-30T07:41:43;19.48;;;10.18;;
70707;SDS011;58277;47.316;18.908;2023-09-30T07:44:06;17.23;;;11.00;;
70707;SDS011;58277;47.316;18.908;2023-09-30T07:46:31;16.42;;;10.40;;
70707;SDS011;58277;47.316;18.908;2023-09-30T07:48:54;19.23;;;10.18;;
70707;SDS011;58277;47.316;18.908;2023-09-30T07:51:17;19.92;;;10.57;;
70707;SDS011;58277;47.316;18.908;2023-09-30T07:53:40;17.85;;;11.20;;
70707;SDS011;58277;47.316;18.908;2023-09-30T07:56:03;22.13;;;10.52;;
70707;SDS011;58277;47.316;18.908;2023-09-30T07:58:26;17.55;;;11.20;;
70707;SDS011;58277;47.316;18.908;2023-09-30T08:00:48;22.60;;;12.02;;
70707;SDS011;58277;47.316;18.908;2023-09-30T08:03:11;20.63;;;12.82;;
70707;SDS011;58277;47.316;18.908;2023-09-30T08:05:34;21.00;;;12.63;;
70707;SDS011;58277;47.316;18.908;2023-09-30T08:07:57;19.65;;;12.18;;
70707;SDS011;58277;47.316;18.908;2023-09-30T08:10:19;23.27;;;12.02;;
70707;SDS011;58277;47.316;18.908;2023-09-30T08:12:42;18.40;;;11.45;;
70707;SDS011;58277;47.316;18.908;2023-09-30T08:15:08;21.38;;;12.20;;
70707;SDS011;58277;47.316;18.908;2023-09-30T08:17:34;21.15;;;12.40;;
70707;SDS011;58277;47.316;18.908;2023-09-30T08:19:57;21.75;;;12.20;;
70707;SDS011;58277;47.316;18.908;2023-09-30T08:22:20;21.63;;;11.93;;
70707;SDS011;58277;47.316;18.908;2023-09-30T08:24:43;19.85;;;11.68;;
70707;SDS011;58277;47.316;18.908;2023-09-30T08:27:06;20.80;;;10.82;;
70707;SDS011;58277;47.316;18.908;2023-09-30T08:29:29;21.40;;;10.48;;
70707;SDS011;58277;47.316;18.908;2023-09-30T08:31:52;17.88;;;10.05;;
70707;SDS011;58277;47.316;18.908;2023-09-30T08:34:17;16.80;;;9.32;;
70707;SDS011;58277;47.316;18.908;2023-09-30T08:36:42;15.98;;;9.20;;
70707;SDS011;58277;47.316;18.908;2023-09-30T08:39:06;12.88;;;8.45;;
70707;SDS011;58277;47.316;18.908;2023-09-30T08:41:32;16.98;;;8.25;;
70707;SDS011;58277;47.316;18.908;2023-09-30T08:43:55;15.60;;;8.32;;
70707;SDS011;58277;47.316;18.908;2023-09-30T08:46:22;11.07;;;7.75;;
70707;SDS011;58277;47.316;18.908;2023-09-30T08:48:46;14.32;;;7.68;;
70707;SDS011;58277;47.316;18.908;2023-09-30T08:51:09;11.68;;;7.30;;
70707;SDS011;58277;47.316;18.908;2023-09-30T08:53:33;15.63;;;7.30;;
70707;SDS011;58277;47.316;18.908;2023-09-30T08:55:57;11.43;;;7.20;;
70707;SDS011;58277;47.316;18.908;2023-09-30T08:58:23;12.45;;;7.90;;
70707;SDS011;58277;47.316;18.908;2023-09-30T09:00:47;13.95;;;7.57;;
70707;SDS011;58277;47.316;18.908;2023-09-30T09:03:10;13.38;;;7.68;;
70707;SDS011;58277;47.316;18.908;2023-09-30T09:05:33;13.50;;;7.95;;
70707;SDS011;58277;47.316;18.908;2023-09-30T09:07:56;16.02;;;8.30;;
70707;SDS011;58277;47.316;18.908;2023-09-30T09:10:18;15.27;;;8.10;;
70707;SDS011;58277;47.316;18.908;2023-09-30T09:12:42;14.82;;;8.07;;
70707;SDS011;58277;47.316;18.908;2023-09-30T09:15:11;19.77;;;7.57;;
70707;SDS011;58277;47.316;18.908;2023-09-30T09:17:44;12.40;;;7.15;;
70707;SDS011;58277;47.316;18.908;2023-09-30T09:20:08;13.63;;;7.03;;
70707;SDS011;58277;47.316;18.908;2023-09-30T09:25:02;13.60;;;7.25;;
70707;SDS011;58277;47.316;18.908;2023-09-30T09:27:25;15.13;;;7.60;;
70707;SDS011;58277;47.316;18.908;2023-09-30T09:29:48;16.45;;;7.55;;
70707;SDS011;58277;47.316;18.908;2023-09-30T09:32:11;11.57;;;6.82;;
70707;SDS011;58277;47.316;18.908;2023-09-30T09:34:35;15.20;;;7.03;;
70707;SDS011;58277;47.316;18.908;2023-09-30T09:36:58;12.52;;;7.53;;
70707;SDS011;58277;47.316;18.908;2023-09-30T09:39:28;17.55;;;7.68;;
70707;SDS011;58277;47.316;18.908;2023-09-30T09:41:55;16.02;;;7.40;;
70707;SDS011;58277;47.316;18.908;2023-09-30T09:44:24;15.55;;;7.60;;
70707;SDS011;58277;47.316;18.908;2023-09-30T09:46:49;12.18;;;6.97;;
70707;SDS011;58277;47.316;18.908;2023-09-30T09:49:16;12.93;;;6.82;;
70707;SDS011;58277;47.316;18.908;2023-09-30T09:51:39;9.82;;;7.10;;
70707;SDS011;58277;47.316;18.908;2023-09-30T09:54:03;11.02;;;7.13;;
70707;SDS011;58277;47.316;18.908;2023-09-30T09:56:29;9.95;;;7.40;;
70707;SDS011;58277;47.316;18.908;2023-09-30T09:58:55;12.85;;;7.47;;
70707;SDS011;58277;47.316;18.908;2023-09-30T10:01:18;12.73;;;7.50;;
70707;SDS011;58277;47.316;18.908;2023-09-30T10:03:41;13.35;;;7.45;;
70707;SDS011;58277;47.316;18.908;2023-09-30T10:06:05;12.63;;;7.97;;
70707;SDS011;58277;47.316;18.908;2023-09-30T10:08:31;12.93;;;7.55;;
70707;SDS011;58277;47.316;18.908;2023-09-30T10:10:57;10.57;;;7.30;;
70707;SDS011;58277;47.316;18.908;2023-09-30T10:19:10;11.90;;;7.50;;
70707;SDS011;58277;47.316;18.908;2023-09-30T10:21:33;12.65;;;7.90;;
70707;SDS011;58277;47.316;18.908;2023-09-30T10:26:47;12.40;;;8.60;;
70707;SDS011;58277;47.316;18.908;2023-09-30T10:30:14;12.35;;;8.18;;
70707;SDS011;58277;47.316;18.908;2023-09-30T10:35:13;14.18;;;7.88;;
70707;SDS011;58277;47.316;18.908;2023-09-30T10:37:36;11.88;;;7.63;;
70707;SDS011;58277;47.316;18.908;2023-09-30T10:40:01;15.25;;;7.63;;
70707;SDS011;58277;47.316;18.908;2023-09-30T10:42:48;13.13;;;7.63;;
70707;SDS011;58277;47.316;18.908;2023-09-30T10:51:13;11.95;;;7.32;;
70707;SDS011;58277;47.316;18.908;2023-09-30T10:53:43;12.10;;;7.95;;
70707;SDS011;58277;47.316;18.908;2023-09-30T10:56:09;12.05;;;7.70;;
70707;SDS011;58277;47.316;18.908;2023-09-30T10:58:42;10.73;;;7.38;;
70707;SDS011;58277;47.316;18.908;2023-09-30T11:01:05;13.27;;;7.68;;
70707;SDS011;58277;47.316;18.908;2023-09-30T11:03:30;10.32;;;6.88;;
70707;SDS011;58277;47.316;18.908;2023-09-30T11:05:53;12.18;;;7.50;;
70707;SDS011;58277;47.316;18.908;2023-09-30T11:08:33;10.98;;;7.10;;
70707;SDS011;58277;47.316;18.908;2023-09-30T11:10:57;9.95;;;6.70;;
70707;SDS011;58277;47.316;18.908;2023-09-30T11:13:25;12.50;;;6.82;;
70707;SDS011;58277;47.316;18.908;2023-09-30T11:16:01;12.73;;;7.18;;
70707;SDS011;58277;47.316;18.908;2023-09-30T11:18:27;10.98;;;6.75;;
70707;SDS011;58277;47.316;18.908;2023-09-30T11:20:53;12.25;;;6.55;;
70707;SDS011;58277;47.316;18.908;2023-09-30T11:23:36;10.55;;;6.90;;
70707;SDS011;58277;47.316;18.908;2023-09-30T11:25:59;11.82;;;6.88;;
70707;SDS011;58277;47.316;18.908;2023-09-30T11:28:35;12.20;;;6.63;;
70707;SDS011;58277;47.316;18.908;2023-09-30T11:31:02;11.60;;;6.45;;
70707;SDS011;58277;47.316;18.908;2023-09-30T11:33:25;11.30;;;6.85;;
70707;SDS011;58277;47.316;18.908;2023-09-30T11:38:23;12.13;;;7.10;;
70707;SDS011;58277;47.316;18.908;2023-09-30T11:41:02;10.52;;;6.70;;
70707;SDS011;58277;47.316;18.908;2023-09-30T11:43:28;10.85;;;6.43;;
70707;SDS011;58277;47.316;18.908;2023-09-30T11:45:51;12.93;;;7.00;;
70707;SDS011;58277;47.316;18.908;2023-09-30T11:48:17;12.90;;;6.80;;
70707;SDS011;58277;47.316;18.908;2023-09-30T11:50:45;12.05;;;6.80;;
70707;SDS011;58277;47.316;18.908;2023-09-30T11:53:17;14.35;;;7.07;;
70707;SDS011;58277;47.316;18.908;2023-09-30T11:55:46;14.32;;;6.85;;
70707;SDS011;58277;47.316;18.908;2023-09-30T11:58:09;12.98;;;7.32;;
70707;SDS011;58277;47.316;18.908;2023-09-30T12:00:34;12.20;;;7.40;;
70707;SDS011;58277;47.316;18.908;2023-09-30T12:02:57;11.90;;;7.55;;
70707;SDS011;58277;47.316;18.908;2023-09-30T12:05:20;13.38;;;7.05;;
70707;SDS011;58277;47.316;18.908;2023-09-30T12:07:47;13.75;;;8.02;;
70707;SDS011;58277;47.316;18.908;2023-09-30T12:10:10;12.13;;;7.28;;
70707;SDS011;58277;47.316;18.908;2023-09-30T12:12:37;12.82;;;7.47;;
70707;SDS011;58277;47.316;18.908;2023-09-30T12:15:02;13.77;;;7.53;;
70707;SDS011;58277;47.316;18.908;2023-09-30T12:17:25;15.48;;;7.80;;
70707;SDS011;58277;47.316;18.908;2023-09-30T12:19:50;14.07;;;7.68;;
70707;SDS011;58277;47.316;18.908;2023-09-30T12:22:13;15.63;;;7.53;;
70707;SDS011;58277;47.316;18.908;2023-09-30T12:24:36;14.95;;;7.70;;
70707;SDS011;58277;47.316;18.908;2023-09-30T12:26:59;12.68;;;7.43;;
70707;SDS011;58277;47.316;18.908;2023-09-30T12:29:24;15.68;;;7.70;;
70707;SDS011;58277;47.316;18.908;2023-09-30T12:31:47;15.05;;;8.45;;
70707;SDS011;58277;47.316;18.908;2023-09-30T12:34:16;13.07;;;8.10;;
70707;SDS011;58277;47.316;18.908;2023-09-30T12:36:40;15.23;;;7.72;;
70707;SDS011;58277;47.316;18.908;2023-09-30T12:39:04;12.63;;;7.75;;
70707;SDS011;58277;47.316;18.908;2023-09-30T12:41:35;16.08;;;7.95;;
70707;SDS011;58277;47.316;18.908;2023-09-30T12:43:57;16.02;;;8.40;;
70707;SDS011;58277;47.316;18.908;2023-09-30T12:46:23;17.83;;;7.85;;
70707;SDS011;58277;47.316;18.908;2023-09-30T12:48:49;14.35;;;7.15;;
70707;SDS011;58277;47.316;18.908;2023-09-30T12:51:12;12.57;;;7.25;;
70707;SDS011;58277;47.316;18.908;2023-09-30T12:53:34;12.90;;;7.68;;
70707;SDS011;58277;47.316;18.908;2023-09-30T12:55:57;15.45;;;7.90;;
70707;SDS011;58277;47.316;18.908;2023-09-30T12:58:21;14.38;;;7.47;;
70707;SDS011;58277;47.316;18.908;2023-09-30T13:00:43;16.52;;;8.23;;
70707;SDS011;58277;47.316;18.908;2023-09-30T13:03:06;15.38;;;8.30;;
70707;SDS011;58277;47.316;18.908;2023-09-30T13:08:34;16.30;;;8.25;;
70707;SDS011;58277;47.316;18.908;2023-09-30T13:10:59;13.30;;;7.80;;
70707;SDS011;58277;47.316;18.908;2023-09-30T13:13:24;14.05;;;8.05;;
70707;SDS011;58277;47.316;18.908;2023-09-30T13:15:47;15.30;;;8.07;;
70707;SDS011;58277;47.316;18.908;2023-09-30T13:18:10;15.80;;;8.43;;
70707;SDS011;58277;47.316;18.908;2023-09-30T13:20:32;19.33;;;8.23;;
70707;SDS011;58277;47.316;18.908;2023-09-30T13:22:55;15.68;;;8.05;;
70707;SDS011;58277;47.316;18.908;2023-09-30T13:25:18;16.65;;;8.15;;
70707;SDS011;58277;47.316;18.908;2023-09-30T13:27:41;17.98;;;8.23;;
70707;SDS011;58277;47.316;18.908;2023-09-30T13:30:06;16.40;;;8.23;;
70707;SDS011;58277;47.316;18.908;2023-09-30T13:32:30;14.30;;;8.32;;
70707;SDS011;58277;47.316;18.908;2023-09-30T13:34:53;16.17;;;8.88;;
70707;SDS011;58277;47.316;18.908;2023-09-30T13:37:16;14.43;;;8.30;;
70707;SDS011;58277;47.316;18.908;2023-09-30T13:39:39;16.33;;;8.60;;
70707;SDS011;58277;47.316;18.908;2023-09-30T13:42:02;14.73;;;8.50;;
70707;SDS011;58277;47.316;18.908;2023-09-30T13:44:25;17.77;;;8.25;;
70707;SDS011;58277;47.316;18.908;2023-09-30T13:46:48;16.17;;;8.32;;
70707;SDS011;58277;47.316;18.908;2023-09-30T13:49:11;17.77;;;9.13;;
70707;SDS011;58277;47.316;18.908;2023-09-30T13:51:34;16.50;;;9.23;;
70707;SDS011;58277;47.316;18.908;2023-09-30T13:53:56;16.45;;;9.40;;
70707;SDS011;58277;47.316;18.908;2023-09-30T13:56:19;17.08;;;8.95;;
70707;SDS011;58277;47.316;18.908;2023-09-30T13:58:42;15.73;;;8.90;;
70707;SDS011;58277;47.316;18.908;2023-09-30T14:01:05;14.95;;;8.80;;
70707;SDS011;58277;47.316;18.908;2023-09-30T14:03:29;15.77;;;8.77;;
70707;SDS011;58277;47.316;18.908;2023-09-30T14:05:52;16.65;;;9.30;;
70707;SDS011;58277;47.316;18.908;2023-09-30T14:08:19;18.40;;;10.02;;
70707;SDS011;58277;47.316;18.908;2023-09-30T14:10:42;17.75;;;9.93;;
70707;SDS011;58277;47.316;18.908;2023-09-30T14:13:06;18.63;;;9.82;;
70707;SDS011;58277;47.316;18.908;2023-09-30T14:15:29;17.30;;;9.48;;
70707;SDS011;58277;47.316;18.908;2023-09-30T14:17:54;17.20;;;9.70;;
70707;SDS011;58277;47.316;18.908;2023-09-30T14:20:17;18.70;;;9.90;;
70707;SDS011;58277;47.316;18.908;2023-09-30T14:22:40;17.73;;;9.55;;
70707;SDS011;58277;47.316;18.908;2023-09-30T14:25:03;18.42;;;10.05;;